sensor_id;sensor_type;location;lat;lon;timestamp;pressure;altitude;pressure_sealevel;temperature;humidity
21574;BME280;10948;48.706;9.258;2023-04-09T00:01:22;98416.59;;;9.24;100.00
21574;BME280;10948;48.706;9.258;2023-04-09T00:03:47;98410.34;;;9.28;100.00
21574;BME280;10948;48.706;9.258;2023-04-09T00:06:13;98415.97;;;9.19;100.00
21574;BME280;10948;48.706;9.258;2023-04-09T00:08:38;98410.63;;;9.22;100.00
21574;BME280;10948;48.706;9.258;2023-04-09T00:11:03;98416.34;;;9.30;100.00
21574;BME280;10948;48.706;9.258;2023-04-09T00:13:29;98413.22;;;9.22;100.00
21574;BME280;10948;48.706;9.258;2023-04-09T00:15:54;98414.91;;;9.03;100.00
21574;BME280;10948;48.706;9.258;2023-04-09T00:18:19;98406.47;;;9.18;100.00
21574;BME280;10948;48.706;9.258;2023-04-09T00:20:45;98409.69;;;9.23;100.00
21574;BME280;10948;48.706;9.258;2023-04-09T00:23:10;98408.28;;;9.16;100.00
21574;BME280;10948;48.706;9.258;2023-04-09T00:25:35;98405.63;;;9.18;100.00
21574;BME280;10948;48.706;9.258;2023-04-09T00:28:01;98402.97;;;9.19;100.00
21574;BME280;10948;48.706;9.258;2023-04-09T00:30:29;98406.47;;;9.18;100.00
21574;BME280;10948;48.706;9.258;2023-04-09T00:32:55;98403.47;;;9.27;100.00
21574;BME280;10948;48.706;9.258;2023-04-09T00:35:20;98404.50;;;9.23;100.00
21574;BME280;10948;48.706;9.258;2023-04-09T00:37:45;98404.50;;;9.23;100.00
21574;BME280;10948;48.706;9.258;2023-04-09T00:40:10;98405.16;;;9.28;100.00
21574;BME280;10948;48.706;9.258;2023-04-09T00:42:36;98400.38;;;9.19;100.00
21574;BME280;10948;48.706;9.258;2023-04-09T00:45:02;98404.81;;;9.17;100.00
21574;BME280;10948;48.706;9.258;2023-04-09T00:47:27;98399.63;;;9.17;100.00
21574;BME280;10948;48.706;9.258;2023-04-09T00:49:54;98403.88;;;9.18;100.00
21574;BME280;10948;48.706;9.258;2023-04-09T00:52:19;98396.88;;;9.20;100.00
21574;BME280;10948;48.706;9.258;2023-04-09T00:54:45;98397.91;;;9.16;100.00
21574;BME280;10948;48.706;9.258;2023-04-09T00:57:11;98405.59;;;8.99;100.00
21574;BME280;10948;48.706;9.258;2023-04-09T00:59:37;98403.50;;;9.07;100.00
21574;BME280;10948;48.706;9.258;2023-04-09T01:02:02;98401.56;;;9.12;100.00
21574;BME280;10948;48.706;9.258;2023-04-09T01:04:27;98400.91;;;9.07;100.00
21574;BME280;10948;48.706;9.258;2023-04-09T01:09:34;98397.03;;;8.97;100.00
21574;BME280;10948;48.706;9.258;2023-04-09T01:12:07;98396.41;;;8.92;100.00
21574;BME280;10948;48.706;9.258;2023-04-09T01:17:14;98404.63;;;9.02;100.00
21574;BME280;10948;48.706;9.258;2023-04-09T01:19:51;98396.19;;;8.97;100.00
21574;BME280;10948;48.706;9.258;2023-04-09T01:24:59;98400.78;;;8.90;100.00
21574;BME280;10948;48.706;9.258;2023-04-09T01:27:29;98398.56;;;9.01;100.00
21574;BME280;10948;48.706;9.258;2023-04-09T01:29:58;98403.13;;;8.96;100.00
21574;BME280;10948;48.706;9.258;2023-04-09T01:32:25;98403.06;;;8.98;100.00
21574;BME280;10948;48.706;9.258;2023-04-09T01:34:51;98398.03;;;8.95;100.00
21574;BME280;10948;48.706;9.258;2023-04-09T01:37:17;98398.84;;;8.95;100.00
21574;BME280;10948;48.706;9.258;2023-04-09T01:39:42;98397.31;;;8.91;100.00
21574;BME280;10948;48.706;9.258;2023-04-09T01:42:08;98400.03;;;8.88;100.00
21574;BME280;10948;48.706;9.258;2023-04-09T01:44:35;98403.38;;;8.90;100.00
21574;BME280;10948;48.706;9.258;2023-04-09T01:47:02;98404.19;;;8.92;100.00
21574;BME280;10948;48.706;9.258;2023-04-09T01:49:27;98401.66;;;8.91;100.00
21574;BME280;10948;48.706;9.258;2023-04-09T01:51:53;98403.22;;;8.95;100.00
21574;BME280;10948;48.706;9.258;2023-04-09T01:54:18;98406.63;;;8.95;100.00
21574;BME280;10948;48.706;9.258;2023-04-09T01:56:45;98399.09;;;8.89;100.00
21574;BME280;10948;48.706;9.258;2023-04-09T01:59:10;98400.28;;;8.82;100.00
21574;BME280;10948;48.706;9.258;2023-04-09T02:01:46;98404.75;;;8.99;100.00
21574;BME280;10948;48.706;9.258;2023-04-09T02:04:15;98400.66;;;8.93;100.00
21574;BME280;10948;48.706;9.258;2023-04-09T02:06:43;98400.94;;;8.87;100.00
21574;BME280;10948;48.706;9.258;2023-04-09T02:09:11;98399.31;;;8.85;100.00
21574;BME280;10948;48.706;9.258;2023-04-09T02:11:37;98407.69;;;8.91;100.00
21574;BME280;10948;48.706;9.258;2023-04-09T02:14:03;98401.06;;;8.84;100.00
21574;BME280;10948;48.706;9.258;2023-04-09T02:16:30;98401.84;;;8.86;100.00
21574;BME280;10948;48.706;9.258;2023-04-09T02:18:55;98397.06;;;8.77;100.00
21574;BME280;10948;48.706;9.258;2023-04-09T02:21:21;98396.91;;;8.80;100.00
21574;BME280;10948;48.706;9.258;2023-04-09T02:23:46;98401.34;;;8.78;100.00
21574;BME280;10948;48.706;9.258;2023-04-09T02:26:12;98394.59;;;8.74;100.00
21574;BME280;10948;48.706;9.258;2023-04-09T02:28:37;98397.56;;;8.85;100.00
21574;BME280;10948;48.706;9.258;2023-04-09T02:31:02;98387.72;;;8.73;100.00
21574;BME280;10948;48.706;9.258;2023-04-09T02:33:28;98399.38;;;8.83;100.00
21574;BME280;10948;48.706;9.258;2023-04-09T02:35:53;98379.88;;;8.75;100.00
21574;BME280;10948;48.706;9.258;2023-04-09T02:38:18;98389.28;;;8.77;100.00
21574;BME280;10948;48.706;9.258;2023-04-09T02:40:43;98391.06;;;8.75;100.00
21574;BME280;10948;48.706;9.258;2023-04-09T02:43:08;98392.03;;;8.73;100.00
21574;BME280;10948;48.706;9.258;2023-04-09T02:45:34;98393.22;;;8.66;100.00
21574;BME280;10948;48.706;9.258;2023-04-09T02:47:59;98391.47;;;8.66;100.00
21574;BME280;10948;48.706;9.258;2023-04-09T02:50:25;98391.34;;;8.69;100.00
21574;BME280;10948;48.706;9.258;2023-04-09T02:52:50;98394.97;;;8.65;100.00
21574;BME280;10948;48.706;9.258;2023-04-09T02:55:15;98396.66;;;8.66;100.00
21574;BME280;10948;48.706;9.258;2023-04-09T02:57:40;98404.97;;;8.74;100.00
21574;BME280;10948;48.706;9.258;2023-04-09T03:00:06;98393.00;;;8.70;100.00
21574;BME280;10948;48.706;9.258;2023-04-09T03:02:31;98391.22;;;8.72;100.00
21574;BME280;10948;48.706;9.258;2023-04-09T03:04:56;98388.72;;;8.69;100.00
21574;BME280;10948;48.706;9.258;2023-04-09T03:07:22;98386.53;;;8.60;100.00
21574;BME280;10948;48.706;9.258;2023-04-09T03:09:47;98385.50;;;8.64;100.00
21574;BME280;10948;48.706;9.258;2023-04-09T03:12:12;98384.59;;;8.65;100.00
21574;BME280;10948;48.706;9.258;2023-04-09T03:14:38;98381.50;;;8.57;100.00
21574;BME280;10948;48.706;9.258;2023-04-09T03:17:03;98377.34;;;8.53;100.00
21574;BME280;10948;48.706;9.258;2023-04-09T03:19:29;98377.44;;;8.50;100.00
21574;BME280;10948;48.706;9.258;2023-04-09T03:21:55;98382.31;;;8.58;100.00
21574;BME280;10948;48.706;9.258;2023-04-09T03:24:20;98374.47;;;8.59;100.00
21574;BME280;10948;48.706;9.258;2023-04-09T03:26:45;98377.13;;;8.58;100.00
21574;BME280;10948;48.706;9.258;2023-04-09T03:29:10;98374.75;;;8.53;100.00
21574;BME280;10948;48.706;9.258;2023-04-09T03:31:36;98380.31;;;8.44;100.00
21574;BME280;10948;48.706;9.258;2023-04-09T03:34:01;98380.38;;;8.63;100.00
21574;BME280;10948;48.706;9.258;2023-04-09T03:36:26;98378.75;;;8.60;100.00
21574;BME280;10948;48.706;9.258;2023-04-09T03:38:52;98379.94;;;8.53;100.00
21574;BME280;10948;48.706;9.258;2023-04-09T03:41:17;98381.50;;;8.57;100.00
21574;BME280;10948;48.706;9.258;2023-04-09T03:43:42;98378.25;;;8.52;100.00
21574;BME280;10948;48.706;9.258;2023-04-09T03:46:14;98371.38;;;8.51;100.00
21574;BME280;10948;48.706;9.258;2023-04-09T03:48:40;98382.81;;;8.46;100.00
21574;BME280;10948;48.706;9.258;2023-04-09T03:51:05;98381.88;;;8.48;100.00
21574;BME280;10948;48.706;9.258;2023-04-09T03:53:31;98378.59;;;8.43;100.00
21574;BME280;10948;48.706;9.258;2023-04-09T03:55:58;98380.31;;;8.44;100.00
21574;BME280;10948;48.706;9.258;2023-04-09T03:58:23;98375.97;;;8.45;100.00
21574;BME280;10948;48.706;9.258;2023-04-09T04:00:48;98377.19;;;8.36;100.00
21574;BME280;10948;48.706;9.258;2023-04-09T04:03:14;98374.13;;;8.47;100.00
21574;BME280;10948;48.706;9.258;2023-04-09T04:05:40;98375.38;;;8.38;100.00
21574;BME280;10948;48.706;9.258;2023-04-09T04:08:05;98370.31;;;8.35;100.00
21574;BME280;10948;48.706;9.258;2023-04-09T04:10:32;98367.88;;;8.32;100.00
21574;BME280;10948;48.706;9.258;2023-04-09T04:12:57;98377.56;;;8.27;100.00
21574;BME280;10948;48.706;9.258;2023-04-09T04:15:22;98373.97;;;8.31;100.00
21574;BME280;10948;48.706;9.258;2023-04-09T04:17:48;98380.81;;;8.32;100.00
21574;BME280;10948;48.706;9.258;2023-04-09T04:20:13;98379.06;;;8.33;100.00
21574;BME280;10948;48.706;9.258;2023-04-09T04:22:38;98382.63;;;8.30;100.00
21574;BME280;10948;48.706;9.258;2023-04-09T04:25:04;98383.34;;;8.12;100.00
21574;BME280;10948;48.706;9.258;2023-04-09T04:27:29;98378.03;;;8.15;100.00
21574;BME280;10948;48.706;9.258;2023-04-09T04:29:55;98383.16;;;8.17;100.00
21574;BME280;10948;48.706;9.258;2023-04-09T04:32:22;98384.81;;;8.19;100.00
21574;BME280;10948;48.706;9.258;2023-04-09T04:34:48;98386.06;;;8.09;100.00
21574;BME280;10948;48.706;9.258;2023-04-09T04:37:14;98396.22;;;8.14;100.00
21574;BME280;10948;48.706;9.258;2023-04-09T04:39:39;98391.78;;;8.17;100.00
21574;BME280;10948;48.706;9.258;2023-04-09T04:42:04;98399.81;;;8.11;100.00
21574;BME280;10948;48.706;9.258;2023-04-09T04:44:30;98396.63;;;8.26;100.00
21574;BME280;10948;48.706;9.258;2023-04-09T04:46:55;98405.63;;;8.16;100.00
21574;BME280;10948;48.706;9.258;2023-04-09T04:49:20;98401.25;;;8.18;100.00
21574;BME280;10948;48.706;9.258;2023-04-09T04:51:45;98396.31;;;8.12;100.00
21574;BME280;10948;48.706;9.258;2023-04-09T04:54:10;98403.94;;;8.15;100.00
21574;BME280;10948;48.706;9.258;2023-04-09T04:56:36;98398.25;;;8.07;100.00
21574;BME280;10948;48.706;9.258;2023-04-09T04:59:01;98399.38;;;8.00;100.00
21574;BME280;10948;48.706;9.258;2023-04-09T05:01:26;98399.69;;;8.14;100.00
21574;BME280;10948;48.706;9.258;2023-04-09T05:03:51;98396.88;;;8.20;100.00
21574;BME280;10948;48.706;9.258;2023-04-09T05:06:17;98397.09;;;8.14;100.00
21574;BME280;10948;48.706;9.258;2023-04-09T05:08:42;98402.63;;;8.27;100.00
21574;BME280;10948;48.706;9.258;2023-04-09T05:11:10;98393.28;;;8.44;100.00
21574;BME280;10948;48.706;9.258;2023-04-09T05:13:35;98393.66;;;8.55;100.00
21574;BME280;10948;48.706;9.258;2023-04-09T05:16:00;98394.19;;;8.63;100.00
21574;BME280;10948;48.706;9.258;2023-04-09T05:18:26;98392.63;;;8.39;100.00
21574;BME280;10948;48.706;9.258;2023-04-09T05:20:51;98389.78;;;8.65;100.00
21574;BME280;10948;48.706;9.258;2023-04-09T05:23:16;98397.56;;;8.85;100.00
21574;BME280;10948;48.706;9.258;2023-04-09T05:25:41;98403.50;;;9.07;100.00
21574;BME280;10948;48.706;9.258;2023-04-09T05:28:07;98390.78;;;9.01;100.00
21574;BME280;10948;48.706;9.258;2023-04-09T05:30:35;98405.56;;;9.19;100.00
21574;BME280;10948;48.706;9.258;2023-04-09T05:33:00;98403.63;;;9.24;100.00
21574;BME280;10948;48.706;9.258;2023-04-09T05:35:25;98410.72;;;9.39;100.00
21574;BME280;10948;48.706;9.258;2023-04-09T05:37:50;98409.09;;;9.55;100.00
21574;BME280;10948;48.706;9.258;2023-04-09T05:40:16;98409.03;;;9.75;100.00
21574;BME280;10948;48.706;9.258;2023-04-09T05:42:41;98401.09;;;10.32;100.00
21574;BME280;10948;48.706;9.258;2023-04-09T05:45:06;98406.00;;;10.38;100.00
21574;BME280;10948;48.706;9.258;2023-04-09T05:47:32;98405.94;;;10.57;97.71
21574;BME280;10948;48.706;9.258;2023-04-09T05:49:57;98405.47;;;10.66;97.21
21574;BME280;10948;48.706;9.258;2023-04-09T05:52:22;98409.53;;;10.88;96.08
21574;BME280;10948;48.706;9.258;2023-04-09T05:54:47;98404.03;;;10.77;94.89
21574;BME280;10948;48.706;9.258;2023-04-09T05:57:13;98406.28;;;11.00;94.07
21574;BME280;10948;48.706;9.258;2023-04-09T05:59:38;98409.66;;;11.02;93.19
21574;BME280;10948;48.706;9.258;2023-04-09T06:02:04;98407.16;;;11.16;92.16
21574;BME280;10948;48.706;9.258;2023-04-09T06:04:29;98407.53;;;11.25;90.60
21574;BME280;10948;48.706;9.258;2023-04-09T06:06:54;98409.00;;;11.31;90.02
21574;BME280;10948;48.706;9.258;2023-04-09T06:09:20;98411.28;;;11.37;88.26
21574;BME280;10948;48.706;9.258;2023-04-09T06:11:45;98409.00;;;11.79;86.49
21574;BME280;10948;48.706;9.258;2023-04-09T06:14:10;98408.16;;;12.25;83.26
21574;BME280;10948;48.706;9.258;2023-04-09T06:16:40;98410.41;;;13.33;76.64
21574;BME280;10948;48.706;9.258;2023-04-09T06:19:05;98405.03;;;13.91;69.75
21574;BME280;10948;48.706;9.258;2023-04-09T06:21:31;98403.53;;;14.54;66.60
21574;BME280;10948;48.706;9.258;2023-04-09T06:23:57;98404.91;;;15.23;63.76
21574;BME280;10948;48.706;9.258;2023-04-09T06:26:22;98404.81;;;15.75;61.28
21574;BME280;10948;48.706;9.258;2023-04-09T06:28:47;98408.00;;;15.91;59.07
21574;BME280;10948;48.706;9.258;2023-04-09T06:31:12;98404.66;;;15.76;59.40
21574;BME280;10948;48.706;9.258;2023-04-09T06:33:38;98409.75;;;16.03;59.07
21574;BME280;10948;48.706;9.258;2023-04-09T06:36:03;98404.19;;;16.31;57.20
21574;BME280;10948;48.706;9.258;2023-04-09T06:38:28;98399.97;;;16.41;56.42
21574;BME280;10948;48.706;9.258;2023-04-09T06:40:54;98404.44;;;17.20;55.02
21574;BME280;10948;48.706;9.258;2023-04-09T06:43:20;98403.19;;;16.91;54.25
21574;BME280;10948;48.706;9.258;2023-04-09T06:45:45;98408.22;;;17.61;53.43
21574;BME280;10948;48.706;9.258;2023-04-09T06:48:11;98409.66;;;17.54;52.51
21574;BME280;10948;48.706;9.258;2023-04-09T06:50:36;98405.75;;;18.35;50.90
21574;BME280;10948;48.706;9.258;2023-04-09T06:53:01;98409.44;;;19.27;48.89
21574;BME280;10948;48.706;9.258;2023-04-09T06:55:27;98411.56;;;20.03;47.60
21574;BME280;10948;48.706;9.258;2023-04-09T06:57:52;98414.38;;;19.71;47.30
21574;BME280;10948;48.706;9.258;2023-04-09T07:00:18;98416.34;;;20.86;47.20
21574;BME280;10948;48.706;9.258;2023-04-09T07:02:43;98422.88;;;21.30;45.54
21574;BME280;10948;48.706;9.258;2023-04-09T07:05:09;98418.13;;;20.76;44.68
21574;BME280;10948;48.706;9.258;2023-04-09T07:07:34;98417.94;;;20.30;44.88
21574;BME280;10948;48.706;9.258;2023-04-09T07:09:59;98419.06;;;21.42;44.61
21574;BME280;10948;48.706;9.258;2023-04-09T07:12:32;98413.13;;;20.73;43.85
21574;BME280;10948;48.706;9.258;2023-04-09T07:14:58;98413.44;;;20.89;44.28
21574;BME280;10948;48.706;9.258;2023-04-09T07:17:24;98423.72;;;20.64;44.69
21574;BME280;10948;48.706;9.258;2023-04-09T07:19:49;98415.88;;;19.34;46.79
21574;BME280;10948;48.706;9.258;2023-04-09T07:22:15;98425.41;;;18.09;49.58
21574;BME280;10948;48.706;9.258;2023-04-09T07:24:41;98427.22;;;17.98;50.13
21574;BME280;10948;48.706;9.258;2023-04-09T07:27:06;98422.06;;;17.52;49.77
21574;BME280;10948;48.706;9.258;2023-04-09T07:29:31;98425.84;;;18.25;49.31
21574;BME280;10948;48.706;9.258;2023-04-09T07:31:57;98417.88;;;18.58;48.36
21574;BME280;10948;48.706;9.258;2023-04-09T07:34:22;98420.78;;;17.80;48.15
21574;BME280;10948;48.706;9.258;2023-04-09T07:36:47;98422.94;;;18.61;47.73
21574;BME280;10948;48.706;9.258;2023-04-09T07:39:12;98428.78;;;19.37;45.70
21574;BME280;10948;48.706;9.258;2023-04-09T07:41:38;98426.03;;;22.25;41.05
21574;BME280;10948;48.706;9.258;2023-04-09T07:44:03;98427.66;;;21.07;41.47
21574;BME280;10948;48.706;9.258;2023-04-09T07:46:30;98440.22;;;22.61;39.60
21574;BME280;10948;48.706;9.258;2023-04-09T07:48:55;98437.34;;;22.00;38.73
21574;BME280;10948;48.706;9.258;2023-04-09T07:51:20;98446.22;;;18.12;45.03
21574;BME280;10948;48.706;9.258;2023-04-09T07:53:46;98450.78;;;18.21;46.57
21574;BME280;10948;48.706;9.258;2023-04-09T07:56:11;98452.28;;;19.61;47.09
21574;BME280;10948;48.706;9.258;2023-04-09T07:58:36;98445.44;;;20.77;42.46
21574;BME280;10948;48.706;9.258;2023-04-09T08:01:04;98449.69;;;18.77;44.95
21574;BME280;10948;48.706;9.258;2023-04-09T08:03:29;98450.97;;;22.05;42.50
21574;BME280;10948;48.706;9.258;2023-04-09T08:05:55;98447.75;;;23.35;38.97
21574;BME280;10948;48.706;9.258;2023-04-09T08:08:20;98456.22;;;25.22;36.86
21574;BME280;10948;48.706;9.258;2023-04-09T08:10:46;98457.59;;;25.26;37.20
21574;BME280;10948;48.706;9.258;2023-04-09T08:13:11;98454.72;;;25.11;36.28
21574;BME280;10948;48.706;9.258;2023-04-09T08:15:37;98449.69;;;24.92;35.67
21574;BME280;10948;48.706;9.258;2023-04-09T08:18:02;98455.38;;;25.13;36.00
21574;BME280;10948;48.706;9.258;2023-04-09T08:20:28;98455.66;;;27.88;33.95
21574;BME280;10948;48.706;9.258;2023-04-09T08:22:53;98455.34;;;24.89;34.48
21574;BME280;10948;48.706;9.258;2023-04-09T08:25:18;98460.22;;;24.11;35.50
21574;BME280;10948;48.706;9.258;2023-04-09T08:27:43;98454.53;;;27.00;34.14
21574;BME280;10948;48.706;9.258;2023-04-09T08:30:09;98465.91;;;28.57;31.63
21574;BME280;10948;48.706;9.258;2023-04-09T08:32:35;98464.00;;;28.22;33.12
21574;BME280;10948;48.706;9.258;2023-04-09T08:35:00;98463.06;;;26.73;32.28
21574;BME280;10948;48.706;9.258;2023-04-09T08:37:26;98464.19;;;25.70;34.49
21574;BME280;10948;48.706;9.258;2023-04-09T08:39:51;98459.72;;;26.33;32.49
21574;BME280;10948;48.706;9.258;2023-04-09T08:42:16;98466.75;;;26.72;32.31
21574;BME280;10948;48.706;9.258;2023-04-09T08:44:43;98464.88;;;25.64;34.09
21574;BME280;10948;48.706;9.258;2023-04-09T08:47:08;98464.00;;;23.32;36.53
21574;BME280;10948;48.706;9.258;2023-04-09T08:49:35;98474.06;;;24.56;35.11
21574;BME280;10948;48.706;9.258;2023-04-09T08:52:00;98478.59;;;24.30;36.34
21574;BME280;10948;48.706;9.258;2023-04-09T08:54:26;98470.16;;;26.50;33.12
21574;BME280;10948;48.706;9.258;2023-04-09T08:56:51;98477.63;;;27.24;31.17
21574;BME280;10948;48.706;9.258;2023-04-09T08:59:16;98474.25;;;22.48;35.71
21574;BME280;10948;48.706;9.258;2023-04-09T09:01:45;98472.41;;;23.88;36.96
21574;BME280;10948;48.706;9.258;2023-04-09T09:04:13;98479.69;;;24.53;35.98
21574;BME280;10948;48.706;9.258;2023-04-09T09:06:39;98478.34;;;23.22;37.36
21574;BME280;10948;48.706;9.258;2023-04-09T09:09:06;98478.38;;;22.23;36.96
21574;BME280;10948;48.706;9.258;2023-04-09T09:11:35;98473.84;;;21.60;38.00
21574;BME280;10948;48.706;9.258;2023-04-09T09:14:04;98483.81;;;19.83;37.98
21574;BME280;10948;48.706;9.258;2023-04-09T09:16:30;98486.44;;;20.33;39.12
21574;BME280;10948;48.706;9.258;2023-04-09T09:18:57;98479.88;;;21.05;39.35
21574;BME280;10948;48.706;9.258;2023-04-09T09:21:22;98484.78;;;21.00;39.75
21574;BME280;10948;48.706;9.258;2023-04-09T09:23:47;98486.63;;;21.93;39.49
21574;BME280;10948;48.706;9.258;2023-04-09T09:26:15;98476.19;;;21.82;38.86
21574;BME280;10948;48.706;9.258;2023-04-09T09:28:42;98481.06;;;22.50;38.35
21574;BME280;10948;48.706;9.258;2023-04-09T09:31:07;98481.53;;;20.29;39.02
21574;BME280;10948;48.706;9.258;2023-04-09T09:33:33;98484.09;;;20.49;39.18
21574;BME280;10948;48.706;9.258;2023-04-09T09:35:58;98483.78;;;19.32;41.21
21574;BME280;10948;48.706;9.258;2023-04-09T09:38:23;98485.34;;;20.45;40.22
21574;BME280;10948;48.706;9.258;2023-04-09T09:40:49;98479.38;;;19.83;41.18
21574;BME280;10948;48.706;9.258;2023-04-09T09:43:14;98493.53;;;20.91;39.19
21574;BME280;10948;48.706;9.258;2023-04-09T09:45:40;98479.59;;;20.99;41.00
21574;BME280;10948;48.706;9.258;2023-04-09T09:48:06;98486.66;;;20.21;40.44
21574;BME280;10948;48.706;9.258;2023-04-09T09:50:31;98480.22;;;20.53;39.41
21574;BME280;10948;48.706;9.258;2023-04-09T09:53:02;98490.81;;;19.11;40.35
21574;BME280;10948;48.706;9.258;2023-04-09T09:55:32;98485.41;;;17.73;42.80
21574;BME280;10948;48.706;9.258;2023-04-09T09:57:59;98478.41;;;20.63;41.01
21574;BME280;10948;48.706;9.258;2023-04-09T10:00:26;98472.59;;;22.10;39.21
21574;BME280;10948;48.706;9.258;2023-04-09T10:05:46;98474.78;;;20.64;38.76
21574;BME280;10948;48.706;9.258;2023-04-09T10:08:12;98474.13;;;20.13;40.16
21574;BME280;10948;48.706;9.258;2023-04-09T10:10:38;98481.59;;;19.88;41.01
21574;BME280;10948;48.706;9.258;2023-04-09T10:13:06;98477.81;;;20.90;39.62
21574;BME280;10948;48.706;9.258;2023-04-09T10:15:33;98485.25;;;20.75;39.18
21574;BME280;10948;48.706;9.258;2023-04-09T10:18:00;98482.41;;;18.86;39.10
21574;BME280;10948;48.706;9.258;2023-04-09T10:20:27;98475.00;;;18.04;42.02
21574;BME280;10948;48.706;9.258;2023-04-09T10:22:56;98471.78;;;18.76;41.10
21574;BME280;10948;48.706;9.258;2023-04-09T10:25:24;98474.28;;;17.91;41.41
21574;BME280;10948;48.706;9.258;2023-04-09T10:28:04;98471.31;;;18.71;40.52
21574;BME280;10948;48.706;9.258;2023-04-09T10:30:38;98470.56;;;19.73;37.97
21574;BME280;10948;48.706;9.258;2023-04-09T10:33:08;98470.00;;;20.39;37.48
21574;BME280;10948;48.706;9.258;2023-04-09T10:35:33;98465.84;;;19.15;39.86
21574;BME280;10948;48.706;9.258;2023-04-09T10:37:58;98468.19;;;20.00;39.58
21574;BME280;10948;48.706;9.258;2023-04-09T10:40:24;98474.41;;;19.99;39.43
21574;BME280;10948;48.706;9.258;2023-04-09T10:42:51;98468.56;;;18.93;39.99
21574;BME280;10948;48.706;9.258;2023-04-09T10:45:18;98474.47;;;16.76;41.86
21574;BME280;10948;48.706;9.258;2023-04-09T10:47:46;98469.81;;;17.48;43.07
21574;BME280;10948;48.706;9.258;2023-04-09T10:50:17;98466.72;;;18.73;40.95
21574;BME280;10948;48.706;9.258;2023-04-09T10:52:43;98469.31;;;20.37;39.49
21574;BME280;10948;48.706;9.258;2023-04-09T10:55:09;98464.41;;;20.03;39.40
21574;BME280;10948;48.706;9.258;2023-04-09T10:57:53;98460.97;;;20.02;39.54
21574;BME280;10948;48.706;9.258;2023-04-09T11:00:18;98459.91;;;19.02;39.45
21574;BME280;10948;48.706;9.258;2023-04-09T11:02:47;98459.88;;;18.17;40.88
21574;BME280;10948;48.706;9.258;2023-04-09T11:05:27;98457.19;;;19.13;39.91
21574;BME280;10948;48.706;9.258;2023-04-09T11:07:56;98454.59;;;18.82;40.18
21574;BME280;10948;48.706;9.258;2023-04-09T11:10:22;98452.09;;;18.80;40.45
21574;BME280;10948;48.706;9.258;2023-04-09T11:12:47;98449.88;;;18.00;41.04
21574;BME280;10948;48.706;9.258;2023-04-09T11:15:16;98453.88;;;17.38;41.72
21574;BME280;10948;48.706;9.258;2023-04-09T11:17:42;98446.41;;;17.32;42.08
21574;BME280;10948;48.706;9.258;2023-04-09T11:20:08;98447.94;;;17.69;41.89
21574;BME280;10948;48.706;9.258;2023-04-09T11:22:34;98444.50;;;18.87;41.46
21574;BME280;10948;48.706;9.258;2023-04-09T11:25:00;98448.81;;;20.20;39.24
21574;BME280;10948;48.706;9.258;2023-04-09T11:27:26;98447.03;;;19.70;38.98
21574;BME280;10948;48.706;9.258;2023-04-09T11:29:54;98439.56;;;20.83;38.04
21574;BME280;10948;48.706;9.258;2023-04-09T11:32:20;98433.19;;;20.66;37.81
21574;BME280;10948;48.706;9.258;2023-04-09T11:34:45;98430.13;;;21.18;37.55
21574;BME280;10948;48.706;9.258;2023-04-09T11:37:14;98427.81;;;21.61;36.58
21574;BME280;10948;48.706;9.258;2023-04-09T11:39:42;98434.25;;;22.05;36.60
21574;BME280;10948;48.706;9.258;2023-04-09T11:42:12;98427.38;;;20.14;36.86
21574;BME280;10948;48.706;9.258;2023-04-09T11:44:37;98423.44;;;21.24;35.76
21574;BME280;10948;48.706;9.258;2023-04-09T11:47:02;98428.84;;;20.46;35.76
21574;BME280;10948;48.706;9.258;2023-04-09T11:49:28;98426.75;;;18.57;37.93
21574;BME280;10948;48.706;9.258;2023-04-09T11:51:54;98435.53;;;18.78;38.99
21574;BME280;10948;48.706;9.258;2023-04-09T11:54:19;98439.47;;;18.52;39.19
21574;BME280;10948;48.706;9.258;2023-04-09T11:56:44;98436.44;;;18.03;39.66
21574;BME280;10948;48.706;9.258;2023-04-09T11:59:19;98430.09;;;18.06;39.59
21574;BME280;10948;48.706;9.258;2023-04-09T12:01:48;98437.34;;;18.24;39.67
21574;BME280;10948;48.706;9.258;2023-04-09T12:04:18;98428.06;;;17.76;40.52
21574;BME280;10948;48.706;9.258;2023-04-09T12:06:43;98431.81;;;18.81;39.68
21574;BME280;10948;48.706;9.258;2023-04-09T12:09:09;98427.22;;;17.54;40.93
21574;BME280;10948;48.706;9.258;2023-04-09T12:11:38;98432.38;;;17.55;40.89
21574;BME280;10948;48.706;9.258;2023-04-09T12:14:11;98426.16;;;17.78;40.47
21574;BME280;10948;48.706;9.258;2023-04-09T12:16:37;98429.00;;;17.86;40.78
21574;BME280;10948;48.706;9.258;2023-04-09T12:19:05;98421.13;;;17.64;41.09
21574;BME280;10948;48.706;9.258;2023-04-09T12:21:48;98421.81;;;19.87;38.73
21574;BME280;10948;48.706;9.258;2023-04-09T12:24:17;98427.75;;;18.45;38.70
21574;BME280;10948;48.706;9.258;2023-04-09T12:26:46;98421.66;;;18.45;39.50
21574;BME280;10948;48.706;9.258;2023-04-09T12:29:13;98417.88;;;18.90;38.48
21574;BME280;10948;48.706;9.258;2023-04-09T12:31:38;98419.53;;;18.70;39.36
21574;BME280;10948;48.706;9.258;2023-04-09T12:34:04;98420.75;;;17.47;39.97
21574;BME280;10948;48.706;9.258;2023-04-09T12:36:29;98412.13;;;17.56;41.05
21574;BME280;10948;48.706;9.258;2023-04-09T12:38:54;98412.41;;;17.64;40.65
21574;BME280;10948;48.706;9.258;2023-04-09T12:41:19;98404.47;;;17.97;40.17
21574;BME280;10948;48.706;9.258;2023-04-09T12:43:45;98413.59;;;17.93;40.21
21574;BME280;10948;48.706;9.258;2023-04-09T12:46:11;98415.59;;;17.45;40.95
21574;BME280;10948;48.706;9.258;2023-04-09T12:48:38;98403.88;;;17.60;40.64
21574;BME280;10948;48.706;9.258;2023-04-09T12:51:03;98403.50;;;18.31;40.26
21574;BME280;10948;48.706;9.258;2023-04-09T12:53:29;98405.19;;;18.52;39.43
21574;BME280;10948;48.706;9.258;2023-04-09T12:55:55;98400.44;;;17.71;40.27
21574;BME280;10948;48.706;9.258;2023-04-09T12:58:21;98398.34;;;17.30;40.45
21574;BME280;10948;48.706;9.258;2023-04-09T13:00:46;98384.69;;;17.25;40.70
21574;BME280;10948;48.706;9.258;2023-04-09T13:03:11;98388.28;;;17.24;40.59
21574;BME280;10948;48.706;9.258;2023-04-09T13:05:36;98394.47;;;17.02;41.23